Time;durP1;ratioP1;P1;durP2;ratioP2;P2;SDS_P1;SDS_P2;PMS_P1;PMS_P2;Temp;Humidity;BMP_temperature;BMP_pressure;BME280_temperature;BME280_humidity;BME280_pressure;Samples;Min_cycle;Max_cycle;Signal;HPM_P1;HPM_P2
2022/04/18 00:01:52;;;;;;;1.02;0.93;;;8.10;84.90;;;;;;5093297;28;20465;-71
2022/04/18 00:04:18;;;;;;;5.60;2.20;;;8.80;85.70;;;;;;5076549;28;20115;-71
2022/04/18 00:06:44;;;;;;;4.88;2.08;;;8.00;85.50;;;;;;5093240;28;20185;-71
2022/04/18 00:09:10;;;;;;;2.88;1.73;;;8.00;85.90;;;;;;5093840;28;20043;-71
2022/04/18 00:11:36;;;;;;;5.57;2.22;;;8.70;86.40;;;;;;5093390;28;20494;-72
2022/04/18 00:14:02;;;;;;;3.55;1.70;;;7.90;86.90;;;;;;5093180;28;20047;-70
2022/04/18 00:16:28;;;;;;;2.90;2.03;;;7.90;87.20;;;;;;5093370;28;20040;-71
2022/04/18 00:18:54;;;;;;;1.45;1.35;;;7.80;87.80;;;;;;5093266;28;20048;-71
2022/04/18 00:21:20;;;;;;;2.47;1.90;;;7.80;89.10;;;;;;5092854;28;20044;-71
2022/04/18 00:23:46;;;;;;;1.38;1.27;;;7.80;88.80;;;;;;5076133;28;20063;-71
2022/04/18 00:26:12;;;;;;;4.40;2.65;;;7.80;89.90;;;;;;5059501;28;20044;-71
2022/04/18 00:28:38;;;;;;;3.15;1.73;;;8.40;90.10;;;;;;5092815;28;20119;-71
2022/04/18 00:31:04;;;;;;;5.88;2.75;;;7.70;90.20;;;;;;5092825;28;20144;-71
2022/04/18 00:33:30;;;;;;;3.65;1.40;;;7.70;90.20;;;;;;5092691;28;20051;-71
2022/04/18 00:35:56;;;;;;;2.90;1.60;;;7.70;90.50;;;;;;5075817;28;20406;-71
2022/04/18 00:38:22;;;;;;;4.32;1.50;;;7.90;90.90;;;;;;5092659;28;20414;-71
2022/04/18 00:40:49;;;;;;;3.28;2.22;;;7.60;90.80;;;;;;5092778;28;20052;-72
2022/04/18 00:43:15;;;;;;;3.25;2.35;;;7.50;91.20;;;;;;5092595;28;20472;-71
2022/04/18 00:45:40;;;;;;;1.83;1.38;;;7.50;91.40;;;;;;5092514;28;20463;-70
2022/04/18 00:48:06;;;;;;;1.48;1.38;;;7.40;91.60;;;;;;5075862;28;20105;-71
2022/04/18 00:50:34;;;;;;;3.53;2.38;;;7.40;91.70;;;;;;5092404;28;20083;-71
2022/04/18 00:53:00;;;;;;;3.33;2.20;;;7.80;92.20;;;;;;5075490;28;20044;-71
2022/04/18 00:55:27;;;;;;;2.58;1.70;;;8.10;92.00;;;;;;5075548;28;20082;-71
2022/04/18 00:57:54;;;;;;;4.38;2.08;;;7.40;92.00;;;;;;5075185;28;20048;-71
2022/04/18 01:00:23;;;;;;;2.55;1.77;;;7.30;92.30;;;;;;5075307;28;20047;-71
2022/04/18 01:02:49;;;;;;;3.92;1.92;;;7.30;93.40;;;;;;5075329;28;20470;-71
2022/04/18 01:05:15;;;;;;;2.95;2.03;;;7.30;93.20;;;;;;5058682;28;20064;-71
2022/04/18 01:07:41;;;;;;;4.50;1.48;;;7.30;93.40;;;;;;5075245;28;20479;-71
2022/04/18 01:10:07;;;;;;;2.58;1.80;;;7.70;93.60;;;;;;5092112;28;20411;-71
2022/04/18 01:12:34;;;;;;;3.65;1.33;;;7.30;93.70;;;;;;5092017;28;20048;-71
2022/04/18 01:15:00;;;;;;;2.33;2.00;;;7.20;93.80;;;;;;5092200;28;20532;-71
2022/04/18 01:17:27;;;;;;;3.28;1.77;;;7.20;94.40;;;;;;5091866;28;20177;-71
2022/04/18 01:19:53;;;;;;;2.08;1.45;;;7.20;94.90;;;;;;5074811;28;20218;-71
2022/04/18 01:22:19;;;;;;;5.13;1.83;;;7.20;95.20;;;;;;5091664;28;20044;-71
2022/04/18 01:30:15;;;;;;;2.00;1.25;;;7.20;94.90;;;;;;5091730;28;20054;-71
2022/04/18 01:32:42;;;;;;;2.15;1.60;;;7.30;95.50;;;;;;5091553;28;20040;-71
2022/04/18 01:35:08;;;;;;;3.97;1.75;;;7.30;95.30;;;;;;5091855;28;20050;-71
2022/04/18 01:37:36;;;;;;;1.58;1.27;;;7.30;95.10;;;;;;5091824;28;20079;-71
2022/04/18 01:40:03;;;;;;;1.95;1.52;;;7.20;95.00;;;;;;5075077;28;20036;-71
2022/04/18 01:42:29;;;;;;;1.65;1.55;;;7.20;95.70;;;;;;5091405;28;20404;-71
2022/04/18 01:44:55;;;;;;;3.75;2.40;;;7.20;95.80;;;;;;5074700;28;20051;-71
2022/04/18 01:47:20;;;;;;;3.05;1.55;;;7.20;95.50;;;;;;5074383;28;20042;-71
2022/04/18 01:49:46;;;;;;;4.35;1.80;;;7.50;95.80;;;;;;5091624;28;20511;-71
2022/04/18 01:52:12;;;;;;;1.35;1.23;;;7.10;96.10;;;;;;5091579;28;20047;-71
2022/04/18 01:54:37;;;;;;;4.68;2.05;;;7.30;96.00;;;;;;5074378;28;20040;-71
2022/04/18 01:57:04;;;;;;;5.25;1.55;;;7.10;96.20;;;;;;5091201;28;20442;-71
2022/04/18 01:59:29;;;;;;;4.53;2.15;;;7.10;96.10;;;;;;5091361;28;20040;-71
2022/04/18 02:01:55;;;;;;;3.00;2.30;;;7.10;96.40;;;;;;5091386;28;20044;-74
2022/04/18 02:04:21;;;;;;;2.47;1.83;;;7.10;96.30;;;;;;5091039;28;20560;-73
2022/04/18 02:06:49;;;;;;;1.67;1.48;;;7.00;96.30;;;;;;5091067;28;20122;-73
2022/04/18 02:09:15;;;;;;;2.88;1.70;;;6.90;96.50;;;;;;5091174;28;20039;-73
2022/04/18 02:11:41;;;;;;;1.92;1.77;;;7.00;96.40;;;;;;5090288;28;20097;-73
2022/04/18 02:14:07;;;;;;;1.83;1.25;;;7.00;96.70;;;;;;5091276;28;20403;-73
2022/04/18 02:16:32;;;;;;;3.45;2.30;;;7.00;96.30;;;;;;5091001;28;20056;-75
2022/04/18 02:18:58;;;;;;;1.48;1.20;;;7.00;96.60;;;;;;5091133;28;20419;-73
2022/04/18 02:21:24;;;;;;;6.90;1.75;;;7.00;96.60;;;;;;5090985;28;20109;-74
2022/04/18 02:23:49;;;;;;;5.13;1.80;;;7.80;97.30;;;;;;5057629;28;20465;-72
2022/04/18 02:26:15;;;;;;;2.40;1.40;;;7.00;96.60;;;;;;5090842;28;20052;-72
2022/04/18 02:28:41;;;;;;;3.47;1.95;;;6.90;96.80;;;;;;5091068;28;20127;-73
2022/04/18 02:31:08;;;;;;;2.53;2.33;;;7.00;97.10;;;;;;5073921;28;20123;-74
2022/04/18 02:33:34;;;;;;;2.40;2.05;;;6.90;97.20;;;;;;5090684;28;20056;-73
2022/04/18 02:36:01;;;;;;;3.45;2.22;;;6.90;97.00;;;;;;5073799;28;20056;-73
2022/04/18 02:38:30;;;;;;;3.40;2.83;;;8.10;97.80;;;;;;5090979;28;20051;-72
2022/04/18 02:40:55;;;;;;;6.53;2.33;;;6.80;97.40;;;;;;5074054;28;20040;-73
2022/04/18 02:43:21;;;;;;;3.38;2.30;;;7.30;98.00;;;;;;5090580;28;20046;-73
2022/04/18 02:45:47;;;;;;;2.17;1.80;;;6.80;97.40;;;;;;5090544;28;20036;-73
2022/04/18 02:48:13;;;;;;;3.20;2.30;;;6.80;97.40;;;;;;5090609;28;20052;-73
2022/04/18 02:50:38;;;;;;;2.03;1.73;;;6.80;98.10;;;;;;5073778;28;20028;-73
2022/04/18 02:53:07;;;;;;;4.32;2.72;;;6.80;98.00;;;;;;5090525;28;20419;-73
2022/04/18 02:55:33;;;;;;;1.60;1.50;;;6.70;97.80;;;;;;5057049;28;20051;-73
2022/04/18 02:57:59;;;;;;;7.88;3.13;;;6.80;98.10;;;;;;5090458;28;20044;-73
2022/04/18 03:00:24;;;;;;;1.45;1.35;;;6.70;98.10;;;;;;5090843;28;20537;-75
2022/04/18 03:02:50;;;;;;;4.30;2.65;;;6.80;98.10;;;;;;5090385;28;20132;-73
2022/04/18 03:05:16;;;;;;;3.10;2.75;;;6.70;98.20;;;;;;5090461;28;20403;-74
2022/04/18 03:07:42;;;;;;;2.92;2.05;;;6.40;98.50;;;;;;5090344;28;20094;-73
2022/04/18 03:10:08;;;;;;;3.53;2.13;;;6.60;98.70;;;;;;5057123;28;20388;-73
2022/04/18 03:12:34;;;;;;;5.47;2.63;;;6.60;98.80;;;;;;5090331;28;20043;-74
2022/04/18 03:15:00;;;;;;;3.22;1.75;;;6.60;98.60;;;;;;5090579;28;20044;-73
2022/04/18 03:17:26;;;;;;;6.03;3.13;;;6.60;98.90;;;;;;5090597;28;20399;-73
2022/04/18 03:19:55;;;;;;;2.65;1.83;;;6.50;98.90;;;;;;5090269;28;20044;-74
2022/04/18 03:22:21;;;;;;;1.55;1.38;;;6.50;99.40;;;;;;5075967;28;20051;-73
2022/04/18 03:24:47;;;;;;;4.40;3.58;;;6.50;99.30;;;;;;5077495;28;20040;-73
2022/04/18 03:27:12;;;;;;;5.22;1.27;;;6.50;99.20;;;;;;5076998;28;20142;-73
2022/04/18 03:29:38;;;;;;;1.88;1.38;;;6.60;99.60;;;;;;5094329;28;20044;-73
2022/04/18 03:32:05;;;;;;;5.35;2.92;;;6.50;99.20;;;;;;5094028;28;20093;-74
2022/04/18 03:34:31;;;;;;;1.83;1.05;;;6.50;99.80;;;;;;5077357;28;20044;-74
2022/04/18 03:39:51;;;;;;;3.88;2.42;;;6.80;99.90;;;;;;5058361;28;20095;-74
2022/04/18 03:42:31;;;;;;;2.10;1.85;;;6.40;99.70;;;;;;5093809;28;20059;-74
2022/04/18 03:44:59;;;;;;;6.68;2.70;;;6.30;99.80;;;;;;5077202;28;20044;-74
2022/04/18 03:47:25;;;;;;;4.63;2.72;;;6.30;99.90;;;;;;5094074;28;20510;-74
2022/04/18 03:49:52;;;;;;;4.20;2.20;;;7.30;99.90;;;;;;5093604;28;20399;-74
2022/04/18 03:52:17;;;;;;;2.55;2.10;;;6.30;99.90;;;;;;5093638;28;20044;-74
2022/04/18 03:54:43;;;;;;;2.10;1.65;;;6.20;99.90;;;;;;5093827;28;20032;-74
2022/04/18 03:57:10;;;;;;;6.05;2.95;;;6.30;99.90;;;;;;5076633;28;20040;-74
2022/04/18 03:59:36;;;;;;;3.40;2.45;;;6.10;99.90;;;;;;5093767;28;20158;-75
2022/04/18 04:02:02;;;;;;;3.10;1.70;;;6.10;99.90;;;;;;5076564;28;20123;-74
2022/04/18 04:04:29;;;;;;;3.95;2.58;;;6.10;99.90;;;;;;5093296;28;20040;-74
2022/04/18 04:06:54;;;;;;;5.00;2.28;;;6.10;99.90;;;;;;5093298;28;20046;-74
2022/04/18 04:09:20;;;;;;;4.55;2.72;;;6.10;99.90;;;;;;5093172;28;20122;-74
2022/04/18 04:11:46;;;;;;;5.22;3.17;;;6.10;99.90;;;;;;5093192;28;20043;-74
2022/04/18 04:14:11;;;;;;;4.78;2.15;;;6.10;99.90;;;;;;5076279;28;20047;-74
2022/04/18 04:16:40;;;;;;;15.55;4.80;;;6.50;99.90;;;;;;5076331;28;20419;-73
2022/04/18 04:19:06;;;;;;;5.82;2.80;;;6.10;99.90;;;;;;5076418;28;20043;-74
2022/04/18 04:21:33;;;;;;;4.10;3.40;;;6.10;99.90;;;;;;5092889;28;20075;-74
2022/04/18 04:24:00;;;;;;;3.17;2.70;;;6.10;99.90;;;;;;5076081;28;20075;-74
2022/04/18 04:26:25;;;;;;;4.15;2.50;;;6.10;99.90;;;;;;5076203;28;20056;-74
2022/04/18 04:28:51;;;;;;;5.90;2.42;;;6.10;99.90;;;;;;5093368;28;20051;-72
2022/04/18 04:31:17;;;;;;;5.57;3.42;;;6.10;99.90;;;;;;5092864;28;20032;-72
2022/04/18 04:33:43;;;;;;;1.65;1.55;;;6.10;99.90;;;;;;5075439;28;20044;-73
2022/04/18 04:36:08;;;;;;;5.45;2.80;;;6.10;99.90;;;;;;5093053;28;20093;-72
2022/04/18 04:38:34;;;;;;;2.53;2.33;;;6.10;99.90;;;;;;5092727;28;20036;-73
2022/04/18 04:41:02;;;;;;;3.60;2.45;;;6.10;99.90;;;;;;5076096;28;20486;-73
2022/04/18 04:43:28;;;;;;;2.70;1.77;;;6.30;99.90;;;;;;5092519;28;20133;-73
2022/04/18 04:45:57;;;;;;;7.40;3.22;;;6.20;99.90;;;;;;5092544;28;20124;-73
2022/04/18 04:48:23;;;;;;;4.03;2.33;;;6.20;99.90;;;;;;5092506;28;20036;-73
2022/04/18 04:50:49;;;;;;;3.33;1.95;;;6.20;99.90;;;;;;5092332;28;20039;-73
2022/04/18 04:53:15;;;;;;;5.60;2.28;;;6.20;99.90;;;;;;5092623;28;20040;-73
2022/04/18 04:55:41;;;;;;;3.63;2.78;;;6.20;99.90;;;;;;5075793;28;20060;-73
2022/04/18 04:58:09;;;;;;;2.85;2.55;;;6.20;99.90;;;;;;5092303;28;20071;-73
2022/04/18 05:00:35;;;;;;;3.05;2.78;;;6.20;99.90;;;;;;5092474;28;20127;-74
2022/04/18 05:03:01;;;;;;;2.80;2.28;;;7.00;99.90;;;;;;5092063;28;20044;-73
2022/04/18 05:05:27;;;;;;;3.53;2.30;;;6.20;99.90;;;;;;5075304;28;20036;-74
2022/04/18 05:07:53;;;;;;;3.20;2.88;;;6.30;99.90;;;;;;5092502;28;20499;-74
2022/04/18 05:10:19;;;;;;;3.22;1.85;;;6.30;99.90;;;;;;5075191;28;20039;-74
2022/04/18 05:12:44;;;;;;;2.95;1.60;;;6.30;99.90;;;;;;5092440;28;20109;-74
2022/04/18 05:15:10;;;;;;;4.15;1.77;;;6.70;99.90;;;;;;5092117;28;20044;-74
2022/04/18 05:17:37;;;;;;;15.10;2.42;;;6.30;99.90;;;;;;5092051;28;20388;-74
2022/04/18 05:20:04;;;;;;;2.03;1.75;;;6.80;99.90;;;;;;5091854;28;20054;-74
2022/04/18 05:22:30;;;;;;;4.85;3.15;;;6.40;99.90;;;;;;5075086;28;20043;-74
2022/04/18 05:24:56;;;;;;;2.42;1.98;;;6.50;99.90;;;;;;5075199;28;20071;-74
2022/04/18 05:27:22;;;;;;;2.35;1.75;;;6.50;99.90;;;;;;5091713;28;20120;-74
2022/04/18 05:29:48;;;;;;;5.07;2.70;;;7.10;99.90;;;;;;5075138;28;20044;-74
2022/04/18 05:32:14;;;;;;;3.35;1.95;;;6.60;99.90;;;;;;5091933;28;20491;-74
2022/04/18 05:34:40;;;;;;;6.70;3.15;;;6.70;99.90;;;;;;5091581;28;20055;-74
2022/04/18 05:37:07;;;;;;;2.88;2.03;;;6.60;99.90;;;;;;5091606;28;20040;-74
2022/04/18 05:39:33;;;;;;;4.30;2.00;;;6.80;99.90;;;;;;5074907;28;20047;-74
2022/04/18 05:41:59;;;;;;;3.90;1.48;;;6.90;99.90;;;;;;5091575;28;20492;-74
2022/04/18 05:44:25;;;;;;;2.03;1.05;;;6.90;99.90;;;;;;5091343;28;20131;-74
2022/04/18 05:46:50;;;;;;;5.38;2.13;;;6.90;99.90;;;;;;5091089;28;20040;-74
2022/04/18 05:49:16;;;;;;;1.75;1.65;;;7.00;99.90;;;;;;5091335;28;20039;-73
2022/04/18 05:51:42;;;;;;;4.80;1.95;;;7.10;99.90;;;;;;5074439;28;20119;-74
2022/04/18 05:54:09;;;;;;;1.48;1.38;;;7.10;99.90;;;;;;5091649;28;20411;-74
2022/04/18 05:56:34;;;;;;;2.85;2.05;;;7.20;99.90;;;;;;5091475;28;20040;-74
2022/04/18 05:59:00;;;;;;;3.88;1.77;;;7.60;99.90;;;;;;5091164;28;20127;-74
2022/04/18 06:01:28;;;;;;;8.48;2.75;;;7.30;99.90;;;;;;5091348;28;20079;-74
2022/04/18 06:03:55;;;;;;;1.58;1.48;;;7.30;99.90;;;;;;5091222;28;20492;-74
2022/04/18 06:06:21;;;;;;;2.63;2.28;;;7.40;99.90;;;;;;5091040;28;20071;-74
2022/04/18 06:08:46;;;;;;;3.22;1.85;;;7.40;99.90;;;;;;5074144;28;20068;-74
2022/04/18 06:11:12;;;;;;;2.13;1.65;;;7.50;99.90;;;;;;5074163;28;20047;-74
2022/04/18 06:13:38;;;;;;;9.07;2.65;;;7.60;99.90;;;;;;5073933;28;20407;-74
2022/04/18 06:16:04;;;;;;;3.22;2.25;;;7.90;99.90;;;;;;5090870;28;20040;-74
2022/04/18 06:18:30;;;;;;;3.40;2.90;;;7.70;99.90;;;;;;5091052;28;20560;-74
2022/04/18 06:20:55;;;;;;;1.58;1.48;;;8.20;99.90;;;;;;5090781;28;20043;-73
2022/04/18 06:23:21;;;;;;;6.88;2.97;;;8.00;99.90;;;;;;5057246;28;20514;-74
2022/04/18 06:25:47;;;;;;;2.08;1.85;;;8.10;99.90;;;;;;5090631;28;20403;-74
2022/04/18 06:28:12;;;;;;;2.05;1.73;;;8.20;99.90;;;;;;5073946;28;20500;-73
2022/04/18 06:30:38;;;;;;;1.75;1.65;;;8.40;99.90;;;;;;5073927;28;20546;-73
2022/04/18 06:33:04;;;;;;;3.20;2.35;;;8.60;99.90;;;;;;5057363;28;20043;-74
2022/04/18 06:35:30;;;;;;;2.15;1.95;;;8.70;99.90;;;;;;5090780;28;20048;-73
2022/04/18 06:37:56;;;;;;;4.38;2.05;;;8.80;99.90;;;;;;5073814;28;20051;-73
2022/04/18 06:40:22;;;;;;;4.72;2.60;;;8.90;99.90;;;;;;5073447;28;20127;-73
2022/04/18 06:42:49;;;;;;;2.58;2.20;;;9.10;99.90;;;;;;5073467;28;20458;-73
2022/04/18 06:45:15;;;;;;;2.25;1.95;;;9.20;99.90;;;;;;5073992;28;20051;-73
2022/04/18 06:47:40;;;;;;;1.55;1.45;;;9.90;99.90;;;;;;5056759;28;20036;-73
2022/04/18 06:50:10;;;;;;;4.07;2.72;;;9.40;99.90;;;;;;5090241;28;20110;-73
2022/04/18 06:52:40;;;;;;;4.63;2.22;;;9.50;99.30;;;;;;5090208;28;20055;-73
2022/04/18 06:55:07;;;;;;;4.90;3.13;;;9.60;99.70;;;;;;5073533;28;20123;-73
2022/04/18 06:57:33;;;;;;;3.50;2.13;;;9.60;99.50;;;;;;5093144;28;20043;-72
2022/04/18 06:59:59;;;;;;;3.95;2.45;;;9.80;99.40;;;;;;5094312;28;20048;-72
2022/04/18 07:02:25;;;;;;;2.58;1.98;;;9.90;99.40;;;;;;5094576;28;20131;-73
2022/04/18 07:04:51;;;;;;;2.33;1.45;;;10.00;99.20;;;;;;5094416;28;20044;-73
2022/04/18 07:07:16;;;;;;;4.40;2.22;;;10.10;98.80;;;;;;5094399;28;20059;-73
2022/04/18 07:09:42;;;;;;;1.20;1.10;;;10.30;98.70;;;;;;5094305;28;20089;-73
2022/04/18 07:12:08;;;;;;;1.65;1.15;;;10.40;98.30;;;;;;5094649;28;20048;-73
2022/04/18 07:14:38;;;;;;;3.50;1.92;;;10.50;98.30;;;;;;5094288;28;20040;-73
2022/04/18 07:17:07;;;;;;;2.97;1.60;;;10.60;98.30;;;;;;5077373;28;20078;-73
2022/04/18 07:19:33;;;;;;;2.10;1.73;;;10.80;98.60;;;;;;5094435;28;20048;-73
2022/04/18 07:21:59;;;;;;;6.20;3.22;;;10.90;98.40;;;;;;5094060;28;20048;-73
2022/04/18 07:24:25;;;;;;;1.98;1.42;;;11.60;97.70;;;;;;5094023;28;20123;-73
2022/04/18 07:26:51;;;;;;;6.53;3.10;;;10.90;97.90;;;;;;5060376;28;20134;-73
2022/04/18 07:29:17;;;;;;;3.83;1.98;;;11.40;97.60;;;;;;5077075;28;20040;-73
2022/04/18 07:31:43;;;;;;;2.92;2.03;;;11.10;97.30;;;;;;5077301;28;20036;-73
2022/04/18 07:34:09;;;;;;;1.48;1.38;;;11.60;97.40;;;;;;5077002;28;20044;-73
2022/04/18 07:36:35;;;;;;;5.05;1.40;;;11.30;97.10;;;;;;5094180;28;20495;-73
2022/04/18 07:39:01;;;;;;;2.00;1.58;;;11.40;96.60;;;;;;5093778;28;20078;-74
2022/04/18 07:41:28;;;;;;;3.35;2.42;;;11.60;97.20;;;;;;5076817;28;20032;-74
2022/04/18 07:43:56;;;;;;;1.42;1.05;;;11.70;97.40;;;;;;5093714;28;20044;-74
2022/04/18 07:46:23;;;;;;;1.13;0.95;;;11.90;97.20;;;;;;5077071;28;20353;-74
2022/04/18 07:48:50;;;;;;;2.60;2.28;;;12.00;97.40;;;;;;5093640;28;20066;-74
2022/04/18 07:51:32;;;;;;;3.85;2.17;;;12.50;95.90;;;;;;5093595;28;20044;-74
2022/04/18 07:53:59;;;;;;;2.22;1.17;;;12.10;95.70;;;;;;5093889;28;20123;-74
2022/04/18 07:56:25;;;;;;;4.72;1.52;;;12.20;96.10;;;;;;5076841;28;20048;-74
2022/04/18 07:58:52;;;;;;;2.97;2.15;;;12.30;95.20;;;;;;5093415;28;20407;-74
2022/04/18 08:01:18;;;;;;;1.52;1.38;;;12.40;95.10;;;;;;5076520;28;20040;-74
2022/04/18 08:03:44;;;;;;;1.35;1.23;;;12.50;95.80;;;;;;5093299;28;20137;-74
2022/04/18 08:06:11;;;;;;;5.97;2.20;;;12.60;95.10;;;;;;5093202;28;20089;-74
2022/04/18 08:08:37;;;;;;;3.85;1.60;;;12.80;95.40;;;;;;5075414;28;20036;-75
2022/04/18 08:11:03;;;;;;;1.67;1.58;;;12.90;94.80;;;;;;5076685;28;20032;-74
2022/04/18 08:13:29;;;;;;;3.47;2.25;;;13.00;94.50;;;;;;5093137;28;20097;-74
2022/04/18 08:15:56;;;;;;;3.47;1.30;;;13.00;93.70;;;;;;5076379;28;20048;-74
2022/04/18 08:18:22;;;;;;;4.75;2.95;;;13.10;93.70;;;;;;5076615;28;20100;-74
2022/04/18 08:20:49;;;;;;;4.07;2.15;;;13.20;93.60;;;;;;5093236;28;20090;-74
2022/04/18 08:23:14;;;;;;;3.58;2.13;;;13.30;93.00;;;;;;5076142;28;20160;-74
2022/04/18 08:25:40;;;;;;;3.60;2.33;;;13.30;91.80;;;;;;5075983;28;20458;-74
2022/04/18 08:28:06;;;;;;;2.88;1.92;;;13.40;91.70;;;;;;5076082;28;20108;-74
2022/04/18 08:30:32;;;;;;;1.90;1.50;;;13.50;91.20;;;;;;5092937;28;20269;-74
2022/04/18 08:32:58;;;;;;;4.75;1.45;;;13.60;91.60;;;;;;5092883;28;20127;-74
2022/04/18 08:35:24;;;;;;;2.97;1.25;;;13.70;90.90;;;;;;5093024;28;20047;-74
2022/04/18 08:37:50;;;;;;;5.47;1.88;;;13.80;90.40;;;;;;5092752;28;20048;-74
2022/04/18 08:40:16;;;;;;;1.98;1.52;;;14.00;90.20;;;;;;5076285;28;20391;-74
2022/04/18 08:42:42;;;;;;;3.90;2.00;;;14.20;90.40;;;;;;5075594;28;20040;-74
2022/04/18 08:45:13;;;;;;;3.60;1.52;;;14.30;87.70;;;;;;5092889;28;20479;-74
2022/04/18 08:53:12;;;;;;;1.23;1.10;;;14.70;86.60;;;;;;5092458;28;20126;-74
2022/04/18 08:55:37;;;;;;;2.75;1.60;;;15.00;83.60;;;;;;5092607;28;20510;-74
2022/04/18 08:58:05;;;;;;;1.40;0.95;;;14.80;84.20;;;;;;5075801;28;20043;-74
2022/04/18 09:00:30;;;;;;;1.20;1.10;;;14.90;78.90;;;;;;5092277;28;20059;-73
2022/04/18 09:02:56;;;;;;;2.85;2.00;;;14.90;80.40;;;;;;5075315;28;20052;-72
2022/04/18 09:05:22;;;;;;;2.75;0.93;;;15.10;80.20;;;;;;5092404;28;20500;-73
2022/04/18 09:08:03;;;;;;;1.73;1.33;;;15.10;78.20;;;;;;5092176;28;20036;-73
2022/04/18 09:10:29;;;;;;;3.58;2.33;;;15.10;76.20;;;;;;5075453;28;20040;-73
2022/04/18 09:13:02;;;;;;;2.35;1.02;;;15.20;79.10;;;;;;5075381;28;20052;-73
2022/04/18 09:15:51;;;;;;;1.05;0.88;;;15.20;75.50;;;;;;5092207;28;20054;-74
2022/04/18 09:18:18;;;;;;;1.35;1.02;;;15.20;75.10;;;;;;5092279;28;20051;-73
2022/04/18 09:20:44;;;;;;;2.78;1.80;;;15.20;75.40;;;;;;5074703;28;20047;-73
2022/04/18 09:23:22;;;;;;;1.45;1.08;;;15.10;73.10;;;;;;5091800;28;20497;-73
2022/04/18 09:25:59;;;;;;;1.80;1.23;;;15.20;73.60;;;;;;5091716;28;20127;-73
2022/04/18 09:28:53;;;;;;;1.58;1.45;;;15.20;72.40;;;;;;5074661;28;20510;-73
2022/04/18 09:31:24;;;;;;;1.50;0.95;;;15.30;74.10;;;;;;5089764;28;20605;-73
2022/04/18 09:33:56;;;;;;;3.80;0.80;;;15.50;74.70;;;;;;5075427;28;20082;-73
2022/04/18 09:36:23;;;;;;;2.13;1.90;;;15.50;70.70;;;;;;5091915;28;20487;-73
2022/04/18 09:38:54;;;;;;;1.30;0.95;;;15.70;72.00;;;;;;5091538;28;20043;-73
2022/04/18 09:41:24;;;;;;;;;;;15.80;74.40;;;;;;5092187;28;20036;-73
2022/04/18 09:43:52;;;;;;;2.78;1.23;;;15.90;71.90;;;;;;5091275;28;19969;-73
2022/04/18 09:46:18;;;;;;;1.83;1.27;;;16.00;72.10;;;;;;5074728;28;20040;-73
2022/04/18 09:48:45;;;;;;;1.17;0.80;;;16.10;71.20;;;;;;5091271;28;20032;-73
2022/04/18 09:51:34;;;;;;;1.27;0.70;;;16.30;73.00;;;;;;5074814;28;20032;-73
2022/04/18 09:54:03;;;;;;;1.25;0.70;;;16.50;72.30;;;;;;5091286;28;20123;-73
2022/04/18 09:56:29;;;;;;;1.08;1.02;;;16.50;73.90;;;;;;5091498;28;20487;-73
2022/04/18 09:58:58;;;;;;;1.00;0.68;;;16.70;73.20;;;;;;5091121;28;20087;-73
2022/04/18 10:01:24;;;;;;;2.50;1.05;;;16.80;71.00;;;;;;5091196;28;20048;-73
2022/04/18 10:03:52;;;;;;;1.27;1.17;;;17.00;72.10;;;;;;5074148;28;20511;-74
2022/04/18 10:06:20;;;;;;;1.17;0.93;;;17.10;71.80;;;;;;5074471;28;20122;-73
2022/04/18 10:08:46;;;;;;;0.65;0.52;;;17.10;69.50;;;;;;5090954;28;20035;-74
2022/04/18 10:11:12;;;;;;;1.77;1.27;;;17.20;72.00;;;;;;5057869;28;20089;-73
2022/04/18 10:13:38;;;;;;;0.85;0.75;;;17.30;71.20;;;;;;5091296;28;20047;-73
2022/04/18 10:16:05;;;;;;;2.35;1.52;;;17.50;90.60;;;;;;5091201;28;20078;-73
2022/04/18 10:18:35;;;;;;;1.73;1.17;;;17.60;92.60;;;;;;5090902;28;20088;-73
2022/04/18 10:21:07;;;;;;;1.63;1.20;;;17.60;92.20;;;;;;5090916;28;20118;-71
2022/04/18 10:23:48;;;;;;;1.33;0.98;;;17.60;91.90;;;;;;5073996;28;20051;-74
2022/04/18 10:26:43;;;;;;;3.92;1.45;;;17.50;90.20;;;;;;5090741;28;20075;-74
2022/04/18 10:29:18;;;;;;;1.63;1.15;;;17.40;89.30;;;;;;5058282;28;20047;-74
2022/04/18 10:31:45;;;;;;;1.45;1.25;;;17.40;90.50;;;;;;5090346;28;20093;-74
2022/04/18 10:34:15;;;;;;;3.03;1.42;;;17.40;90.30;;;;;;5073966;28;20036;-74
2022/04/18 10:36:46;;;;;;;1.70;1.27;;;17.60;90.70;;;;;;5090884;28;20372;-74
2022/04/18 10:39:12;;;;;;;1.10;1.00;;;17.80;92.10;;;;;;5073822;28;20040;-74
2022/04/18 10:41:44;;;;;;;2.03;1.10;;;17.80;94.10;;;;;;5090565;28;20043;-74
2022/04/18 10:44:10;;;;;;;1.70;0.93;;;17.80;92.90;;;;;;5090587;28;20048;-74
2022/04/18 10:46:41;;;;;;;0.95;0.80;;;17.90;94.30;;;;;;5090780;28;20052;-74
2022/04/18 10:49:18;;;;;;;2.13;1.30;;;17.90;94.00;;;;;;5074079;28;20399;-74
2022/04/18 10:51:46;;;;;;;2.30;1.20;;;17.90;94.00;;;;;;5090453;28;20044;-74
2022/04/18 10:54:17;;;;;;;2.97;1.35;;;18.00;94.10;;;;;;5090482;28;20040;-73
2022/04/18 10:56:48;;;;;;;1.38;0.70;;;18.10;95.20;;;;;;5073584;28;20048;-74
2022/04/18 10:59:16;;;;;;;2.90;1.30;;;18.20;95.00;;;;;;5073500;28;20099;-72
2022/04/18 11:01:42;;;;;;;4.93;1.83;;;18.10;96.30;;;;;;5090178;28;20032;-73
2022/04/18 11:04:10;;;;;;;0.65;0.60;;;18.30;96.90;;;;;;5057297;28;20075;-74
2022/04/18 11:06:39;;;;;;;1.33;1.00;;;18.30;97.40;;;;;;5073990;28;20075;-73
2022/04/18 11:09:18;;;;;;;5.18;1.30;;;18.30;95.90;;;;;;5090255;28;20127;-73
2022/04/18 11:11:54;;;;;;;1.83;1.23;;;18.30;96.80;;;;;;5090337;28;20036;-74
2022/04/18 11:14:21;;;;;;;2.75;1.20;;;18.30;96.30;;;;;;5090559;28;20032;-73
2022/04/18 11:16:49;;;;;;;2.65;1.23;;;18.40;97.00;;;;;;5090454;28;20032;-73
2022/04/18 11:19:14;;;;;;;1.67;0.80;;;18.40;96.60;;;;;;5073341;28;20028;-73
2022/04/18 11:21:59;;;;;;;3.78;1.23;;;18.30;96.10;;;;;;5090059;28;20510;-73
2022/04/18 11:24:48;;;;;;;1.63;1.25;;;18.40;94.80;;;;;;5090358;28;20135;-73
2022/04/18 11:27:26;;;;;;;0.93;0.75;;;18.30;95.50;;;;;;5073036;28;20076;-73
2022/04/18 11:30:21;;;;;;;3.90;1.42;;;18.50;96.90;;;;;;5090055;28;20042;-73
2022/04/18 11:32:46;;;;;;;2.58;1.30;;;18.60;96.40;;;;;;5081150;28;20050;-73
2022/04/18 11:35:13;;;;;;;2.85;1.17;;;18.50;96.00;;;;;;5089990;28;20056;-73
2022/04/18 11:37:43;;;;;;;1.92;1.08;;;18.60;95.70;;;;;;5089963;28;20047;-73
2022/04/18 11:40:11;;;;;;;1.17;0.77;;;18.50;94.80;;;;;;5090212;28;20395;-73
2022/04/18 11:42:39;;;;;;;2.35;1.25;;;18.50;95.40;;;;;;5073986;28;20109;-73
2022/04/18 11:45:07;;;;;;;3.38;1.40;;;18.60;95.50;;;;;;5076754;28;20047;-73
2022/04/18 11:47:47;;;;;;;1.83;1.23;;;18.60;94.80;;;;;;5093514;28;20044;-73
2022/04/18 11:50:15;;;;;;;0.63;0.63;;;18.70;94.30;;;;;;5093789;28;20059;-74
2022/04/18 11:52:42;;;;;;;2.20;0.98;;;18.70;94.10;;;;;;5093598;28;20047;-73
2022/04/18 11:55:13;;;;;;;1.83;1.10;;;18.60;93.40;;;;;;5093540;28;20127;-73
2022/04/18 11:57:45;;;;;;;2.17;1.17;;;18.80;93.30;;;;;;5093448;28;20105;-73
2022/04/18 12:00:16;;;;;;;0.88;0.80;;;18.70;94.10;;;;;;5076518;28;20048;-73
2022/04/18 12:08:13;;;;;;;1.17;0.63;;;;;;;;;;5093259;28;20255;-73
2022/04/18 12:10:42;;;;;;;1.27;0.82;;;;;;;;;;5093082;28;20044;-73
2022/04/18 12:13:09;;;;;;;1.52;0.65;;;;;;;;;;5093202;28;20055;-74
2022/04/18 12:15:35;;;;;;;1.08;0.70;;;;;;;;;;5093202;28;20104;-73
2022/04/18 12:18:13;;;;;;;3.58;0.80;;;19.10;95.40;;;;;;5093112;28;20051;-74
2022/04/18 12:20:42;;;;;;;2.30;1.45;;;19.60;60.20;;;;;;5093021;28;20115;-73
2022/04/18 12:23:14;;;;;;;3.50;1.17;;;19.60;60.40;;;;;;5076190;28;20415;-74
2022/04/18 12:25:43;;;;;;;1.00;0.65;;;19.60;59.30;;;;;;5092967;28;20070;-74
2022/04/18 12:28:09;;;;;;;2.20;1.48;;;19.70;55.60;;;;;;5075947;28;20506;-74
2022/04/18 12:30:35;;;;;;;0.95;0.60;;;19.60;58.40;;;;;;5092839;28;20055;-74
2022/04/18 12:33:12;;;;;;;3.30;1.02;;;19.60;58.50;;;;;;5092705;28;20136;-74
2022/04/18 12:35:40;;;;;;;1.85;1.02;;;19.60;58.10;;;;;;5094344;28;20455;-74
2022/04/18 12:38:11;;;;;;;0.95;0.93;;;19.60;60.40;;;;;;5092909;28;20513;-75
2022/04/18 12:40:39;;;;;;;2.25;1.25;;;19.70;59.50;;;;;;5093039;28;20433;-74
2022/04/18 12:43:07;;;;;;;0.73;0.50;;;19.70;59.40;;;;;;5092621;28;20059;-74
2022/04/18 12:45:45;;;;;;;1.42;0.90;;;19.70;62.30;;;;;;5092589;28;20055;-74
2022/04/18 12:48:11;;;;;;;1.17;1.02;;;19.70;59.60;;;;;;5092756;28;20502;-74
2022/04/18 12:50:38;;;;;;;1.20;0.90;;;19.70;56.20;;;;;;5075806;28;20046;-74
2022/04/18 12:53:04;;;;;;;2.00;1.30;;;19.70;57.70;;;;;;5092565;28;20050;-73
2022/04/18 12:55:31;;;;;;;2.67;1.10;;;19.60;57.50;;;;;;5091867;28;20043;-75
2022/04/18 12:58:00;;;;;;;1.35;0.98;;;19.70;59.50;;;;;;5092201;28;20043;-74
2022/04/18 13:00:35;;;;;;;0.73;0.60;;;19.90;60.40;;;;;;5075445;28;20066;-74
2022/04/18 13:03:03;;;;;;;1.42;0.82;;;19.90;60.20;;;;;;5092074;28;20040;-74
2022/04/18 13:05:31;;;;;;;1.60;0.80;;;20.00;58.70;;;;;;5092491;28;20040;-74
2022/04/18 13:07:59;;;;;;;0.70;0.60;;;20.10;56.80;;;;;;5075270;28;20048;-74
2022/04/18 13:10:27;;;;;;;1.98;0.77;;;20.10;58.00;;;;;;5075440;28;20040;-73
2022/04/18 13:13:05;;;;;;;1.85;1.05;;;20.00;57.20;;;;;;5092173;28;20052;-74
2022/04/18 13:15:31;;;;;;;1.02;0.77;;;20.00;56.90;;;;;;5091982;28;20047;-74